createdAt,value
2022-09-17T00:01:41.795Z,6.50
2022-09-17T00:04:10.490Z,6.90
2022-09-17T00:06:38.766Z,7.50
2022-09-17T00:09:08.906Z,7.10
2022-09-17T00:11:41.677Z,7.00
2022-09-17T00:14:16.350Z,7.50
2022-09-17T00:16:47.793Z,6.80
2022-09-17T00:19:21.016Z,7.20
2022-09-17T00:21:50.264Z,7.10
2022-09-17T00:24:20.582Z,6.70
2022-09-17T00:26:49.151Z,7.30
2022-09-17T00:29:17.359Z,8.00
2022-09-17T00:31:45.537Z,8.20
2022-09-17T00:34:13.698Z,7.20
2022-09-17T00:36:41.914Z,8.00
2022-09-17T00:39:12.326Z,8.30
2022-09-17T00:41:40.526Z,9.10
2022-09-17T00:44:53.192Z,8.60
2022-09-17T00:47:29.973Z,9.90
2022-09-17T00:50:14.351Z,8.20
2022-09-17T00:52:54.199Z,8.30
2022-09-17T00:55:35.257Z,7.50
2022-09-17T00:58:07.524Z,4.50
2022-09-17T01:00:36.339Z,1.80
2022-09-17T01:03:05.038Z,1.90
2022-09-17T01:06:16.771Z,1.90
2022-09-17T01:09:10.280Z,1.60
2022-09-17T01:12:19.071Z,1.70
2022-09-17T01:15:12.064Z,1.90
2022-09-17T01:18:05.103Z,2.30
2022-09-17T01:21:15.147Z,2.30
2022-09-17T01:24:14.161Z,2.30
2022-09-17T01:27:22.499Z,2.40
2022-09-17T01:30:43.013Z,3.00
2022-09-17T01:33:26.333Z,2.50
2022-09-17T01:36:27.843Z,2.30
2022-09-17T01:39:26.771Z,2.60
2022-09-17T01:42:24.363Z,2.90
2022-09-17T01:45:22.168Z,2.80
2022-09-17T01:48:20.481Z,2.70
2022-09-17T01:51:16.998Z,2.40
2022-09-17T01:54:15.223Z,2.20
2022-09-17T01:56:55.270Z,2.60
2022-09-17T02:00:02.949Z,3.10
2022-09-17T02:03:33.012Z,3.00
2022-09-17T02:06:07.201Z,2.90
2022-09-17T02:08:56.464Z,2.60
2022-09-17T02:11:25.188Z,2.00
2022-09-17T02:14:15.409Z,2.50
2022-09-17T02:16:52.153Z,2.70
2022-09-17T02:19:38.196Z,2.30
2022-09-17T02:22:28.150Z,3.00
2022-09-17T02:25:06.066Z,3.20
2022-09-17T02:28:03.307Z,4.10
2022-09-17T02:30:32.527Z,3.80
2022-09-17T02:33:04.969Z,3.60
2022-09-17T02:35:33.524Z,3.50
2022-09-17T02:38:01.597Z,3.40
2022-09-17T02:40:35.640Z,3.30
2022-09-17T02:44:03.393Z,3.90
2022-09-17T02:47:11.872Z,3.60
2022-09-17T02:50:18.845Z,3.00
2022-09-17T02:53:01.657Z,3.50
2022-09-17T02:56:02.835Z,3.50
2022-09-17T02:59:03.076Z,3.10
2022-09-17T03:01:44.922Z,2.80
2022-09-17T03:04:17.307Z,2.50
2022-09-17T03:06:47.428Z,2.40
2022-09-17T03:09:16.032Z,2.50
2022-09-17T03:11:44.317Z,2.70
2022-09-17T03:14:12.451Z,2.70
2022-09-17T03:16:40.583Z,2.50
2022-09-17T03:19:08.747Z,2.90
2022-09-17T03:21:36.840Z,2.70
2022-09-17T03:24:05.008Z,2.70
2022-09-17T03:26:33.134Z,2.50
2022-09-17T03:29:01.732Z,2.50
2022-09-17T03:31:29.894Z,3.00
2022-09-17T03:33:58.891Z,3.30
2022-09-17T03:36:27.091Z,2.70
2022-09-17T03:38:59.384Z,3.20
2022-09-17T03:41:28.008Z,2.70
2022-09-17T03:43:56.132Z,3.50
2022-09-17T03:46:24.499Z,3.00
2022-09-17T03:48:52.668Z,3.20
2022-09-17T03:51:20.774Z,3.50
2022-09-17T03:53:48.993Z,3.30
2022-09-17T03:56:17.698Z,3.20
2022-09-17T03:58:45.804Z,2.90
2022-09-17T04:01:14.101Z,3.40
2022-09-17T04:03:42.406Z,3.00
2022-09-17T04:06:10.516Z,3.10
2022-09-17T04:08:38.757Z,2.80
2022-09-17T04:11:07.859Z,3.10
2022-09-17T04:13:36.616Z,2.90
2022-09-17T04:16:05.253Z,3.10
2022-09-17T04:18:33.972Z,3.30
2022-09-17T04:21:02.146Z,3.00
2022-09-17T04:23:30.281Z,3.20
2022-09-17T04:25:58.442Z,3.00
2022-09-17T04:28:26.789Z,2.80
2022-09-17T04:30:54.958Z,3.10
2022-09-17T04:33:23.545Z,3.00
2022-09-17T04:35:51.636Z,2.80
2022-09-17T04:38:20.769Z,2.80
2022-09-17T04:40:49.375Z,2.90
2022-09-17T04:43:17.612Z,3.00
2022-09-17T04:45:49.587Z,2.50
2022-09-17T04:48:18.198Z,2.50
2022-09-17T04:50:46.317Z,2.80
2022-09-17T04:53:14.546Z,3.00
2022-09-17T04:55:43.761Z,3.20
2022-09-17T04:58:11.969Z,3.00
2022-09-17T05:00:41.933Z,3.00
2022-09-17T05:03:10.206Z,3.50
2022-09-17T05:05:38.333Z,3.30
2022-09-17T05:08:08.389Z,3.50
2022-09-17T05:10:36.496Z,3.00
2022-09-17T05:13:04.617Z,3.30
2022-09-17T05:15:32.682Z,3.30
2022-09-17T05:18:01.087Z,3.10
2022-09-17T05:20:29.214Z,3.50
2022-09-17T05:22:57.277Z,2.80
2022-09-17T05:25:25.592Z,3.60
2022-09-17T05:27:56.347Z,3.50
2022-09-17T05:30:24.488Z,3.00
2022-09-17T05:33:07.045Z,3.40
2022-09-17T05:35:38.316Z,3.30
2022-09-17T05:38:07.909Z,3.40
2022-09-17T05:40:37.653Z,3.20
2022-09-17T05:43:07.468Z,3.50
2022-09-17T05:45:37.512Z,4.60
2022-09-17T05:48:10.041Z,3.30
2022-09-17T05:50:38.270Z,2.90
2022-09-17T05:53:10.840Z,3.50
2022-09-17T05:58:12.237Z,3.10
2022-09-17T06:00:41.940Z,3.10
2022-09-17T06:03:12.635Z,3.50
2022-09-17T06:05:41.482Z,3.90
2022-09-17T06:08:10.417Z,3.60
2022-09-17T06:10:39.386Z,3.60
2022-09-17T06:13:07.588Z,3.80
2022-09-17T06:15:35.807Z,3.80
2022-09-17T06:18:03.989Z,3.50
2022-09-17T06:20:32.920Z,3.60
2022-09-17T06:23:01.067Z,3.70
2022-09-17T06:25:29.547Z,3.80
2022-09-17T06:27:57.840Z,3.90
2022-09-17T06:30:25.920Z,3.50
2022-09-17T06:32:54.234Z,4.50
2022-09-17T06:35:22.333Z,4.00
2022-09-17T06:37:50.495Z,4.10
2022-09-17T06:40:18.772Z,4.30
2022-09-17T06:42:46.928Z,4.50
2022-09-17T06:45:16.939Z,4.00
2022-09-17T06:47:45.608Z,5.40
2022-09-17T06:50:13.812Z,4.50
2022-09-17T06:52:49.616Z,4.20
2022-09-17T06:55:18.350Z,4.00
2022-09-17T06:57:46.864Z,5.00
2022-09-17T07:00:15.647Z,4.40
2022-09-17T07:02:43.861Z,4.10
2022-09-17T07:05:11.959Z,3.80
2022-09-17T07:07:40.878Z,4.40
2022-09-17T07:10:09.383Z,4.30
2022-09-17T07:12:44.463Z,4.00
2022-09-17T07:15:15.988Z,4.10
2022-09-17T07:17:44.561Z,3.80
2022-09-17T07:20:13.441Z,3.90
2022-09-17T07:22:41.622Z,3.60
2022-09-17T07:25:10.312Z,3.70
2022-09-17T07:27:38.417Z,3.70
2022-09-17T07:30:07.555Z,3.60
2022-09-17T07:32:35.711Z,3.80
2022-09-17T07:35:04.284Z,4.30
2022-09-17T07:37:32.869Z,4.00
2022-09-17T07:40:01.253Z,4.20
2022-09-17T07:42:29.454Z,4.30
2022-09-17T07:45:01.758Z,4.70
2022-09-17T07:47:30.331Z,5.20
2022-09-17T07:49:58.456Z,4.90
2022-09-17T07:52:27.096Z,4.40
2022-09-17T07:54:55.209Z,4.90
2022-09-17T07:57:23.326Z,6.80
2022-09-17T07:59:51.637Z,5.80
2022-09-17T08:02:24.056Z,5.30
2022-09-17T08:04:53.272Z,5.20
2022-09-17T08:07:21.433Z,4.70
2022-09-17T08:09:50.135Z,5.40
2022-09-17T08:12:19.546Z,5.50
2022-09-17T08:14:47.796Z,4.80
2022-09-17T08:17:15.941Z,4.20
2022-09-17T08:19:44.094Z,4.70
2022-09-17T08:22:12.259Z,4.20
2022-09-17T08:24:40.411Z,3.90
2022-09-17T08:27:08.619Z,4.50
2022-09-17T08:29:36.721Z,3.90
2022-09-17T08:32:04.858Z,3.90
2022-09-17T08:34:33.171Z,5.10
2022-09-17T08:37:01.396Z,3.90
2022-09-17T08:39:29.621Z,4.30
2022-09-17T08:42:15.979Z,4.10
2022-09-17T08:44:47.456Z,3.70
2022-09-17T08:47:37.930Z,4.00
2022-09-17T08:50:14.427Z,3.60
2022-09-17T08:53:04.776Z,3.30
2022-09-17T08:55:54.319Z,3.70
2022-09-17T08:58:57.883Z,3.80
2022-09-17T09:04:41.851Z,3.90
2022-09-17T09:07:21.746Z,2.70
2022-09-17T09:10:13.968Z,3.60
2022-09-17T09:12:44.195Z,3.20
2022-09-17T09:15:38.333Z,3.10
2022-09-17T09:18:38.395Z,3.50
2022-09-17T09:21:13.720Z,3.60
2022-09-17T09:23:50.780Z,3.50
2022-09-17T09:26:32.749Z,3.50
2022-09-17T09:29:23.807Z,4.00
2022-09-17T09:32:22.458Z,3.20
2022-09-17T09:34:51.484Z,3.30
2022-09-17T09:37:42.213Z,3.10
2022-09-17T09:40:43.291Z,3.30
2022-09-17T09:43:22.825Z,3.50
2022-09-17T09:46:43.619Z,2.90
2022-09-17T09:49:30.222Z,3.80
2022-09-17T09:52:21.016Z,3.50
2022-09-17T09:55:13.605Z,2.90
2022-09-17T09:57:48.489Z,3.50
2022-09-17T10:00:39.439Z,3.00
2022-09-17T10:03:33.004Z,2.40
2022-09-17T10:06:06.517Z,2.70
2022-09-17T10:08:38.357Z,2.90
2022-09-17T10:11:13.155Z,2.70
2022-09-17T10:13:41.341Z,2.60
2022-09-17T10:16:24.940Z,2.30
2022-09-17T10:19:05.354Z,2.20
2022-09-17T10:21:40.567Z,2.10
2022-09-17T10:24:34.482Z,2.40
2022-09-17T10:27:14.152Z,1.80
2022-09-17T10:29:49.218Z,2.00
2022-09-17T10:32:20.818Z,2.00
2022-09-17T10:35:24.855Z,2.00
2022-09-17T10:37:54.570Z,2.30
2022-09-17T10:40:30.846Z,2.10
2022-09-17T10:43:28.386Z,2.40
2022-09-17T10:45:59.941Z,2.30
2022-09-17T10:48:37.132Z,2.60
2022-09-17T10:51:06.871Z,2.50
2022-09-17T10:54:07.447Z,2.40
2022-09-17T10:56:37.803Z,2.40
2022-09-17T10:59:27.676Z,2.40
2022-09-17T11:02:23.074Z,2.10
2022-09-17T11:05:37.170Z,1.90
2022-09-17T11:08:11.113Z,2.30
2022-09-17T11:11:06.509Z,1.90
2022-09-17T11:14:17.647Z,2.60
2022-09-17T11:16:45.760Z,2.20
2022-09-17T11:19:17.639Z,2.10
2022-09-17T11:21:56.169Z,2.30
2022-09-17T11:25:08.239Z,2.20
2022-09-17T11:28:18.209Z,2.20
2022-09-17T11:31:13.385Z,2.20
2022-09-17T11:34:28.901Z,2.70
2022-09-17T11:37:16.345Z,3.00
2022-09-17T11:39:49.552Z,2.50
2022-09-17T11:42:27.966Z,2.70
2022-09-17T11:45:22.602Z,2.30
2022-09-17T11:48:10.828Z,2.30
2022-09-17T11:50:48.852Z,2.50
2022-09-17T11:53:38.151Z,2.80
2022-09-17T11:56:23.373Z,2.40
2022-09-17T11:59:01.161Z,2.20
2022-09-17T12:01:46.876Z,2.20
2022-09-17T12:05:06.730Z,2.60
2022-09-17T12:08:14.387Z,2.30
2022-09-17T12:10:42.859Z,2.10
2022-09-17T12:13:22.859Z,2.00
2022-09-17T12:16:13.635Z,2.20
2022-09-17T12:18:51.770Z,1.80
2022-09-17T12:21:47.922Z,2.00
2022-09-17T12:24:24.885Z,2.70
2022-09-17T12:27:35.069Z,2.30
2022-09-17T12:30:22.830Z,2.20
2022-09-17T12:33:03.329Z,2.10
2022-09-17T12:36:05.748Z,2.00
2022-09-17T12:39:23.716Z,2.00
2022-09-17T12:42:43.438Z,2.00
2022-09-17T12:45:21.649Z,2.00
2022-09-17T12:48:07.610Z,2.20
2022-09-17T12:50:53.686Z,2.10
2022-09-17T12:53:42.916Z,2.50
2022-09-17T12:56:39.581Z,2.50
2022-09-17T12:59:19.074Z,2.10
2022-09-17T13:01:56.028Z,2.20
2022-09-17T13:05:01.123Z,2.90
2022-09-17T13:07:48.960Z,2.40
2022-09-17T13:11:01.299Z,2.50
2022-09-17T13:13:32.543Z,2.50
2022-09-17T13:16:35.893Z,2.60
2022-09-17T13:19:41.389Z,2.60
2022-09-17T13:22:24.846Z,2.00
2022-09-17T13:25:13.307Z,1.90
2022-09-17T13:27:42.092Z,2.30
2022-09-17T13:30:19.243Z,2.10
2022-09-17T13:32:52.471Z,1.90
2022-09-17T13:35:20.521Z,2.80
2022-09-17T13:38:00.469Z,3.80
2022-09-17T13:40:36.997Z,2.00
2022-09-17T13:43:15.328Z,1.70
2022-09-17T13:46:03.019Z,1.90
2022-09-17T13:48:36.127Z,1.90
2022-09-17T13:51:34.900Z,1.70
2022-09-17T13:54:06.845Z,2.10
2022-09-17T13:57:02.770Z,1.70
2022-09-17T13:59:31.379Z,2.10
2022-09-17T14:02:04.215Z,2.20
2022-09-17T14:04:41.285Z,1.80
2022-09-17T14:07:29.720Z,2.60
2022-09-17T14:10:22.456Z,2.10
2022-09-17T14:12:53.594Z,1.90
2022-09-17T14:15:39.435Z,2.00
2022-09-17T14:18:29.044Z,2.00
2022-09-17T14:21:09.342Z,1.70
2022-09-17T14:23:50.862Z,2.30
2022-09-17T14:26:49.041Z,2.30
2022-09-17T14:29:53.966Z,2.00
2022-09-17T14:32:40.248Z,1.90
2022-09-17T14:35:44.715Z,2.30
2022-09-17T14:38:44.890Z,2.30
2022-09-17T14:41:12.892Z,2.30
2022-09-17T14:44:18.263Z,2.50
2022-09-17T14:46:57.298Z,2.50
2022-09-17T14:49:28.610Z,1.90
2022-09-17T14:51:59.050Z,2.10
2022-09-17T14:54:32.468Z,2.30
2022-09-17T14:57:10.334Z,3.20
2022-09-17T14:59:58.703Z,2.80
2022-09-17T15:02:44.182Z,2.30
2022-09-17T15:05:23.964Z,2.50
2022-09-17T15:07:52.247Z,2.50
2022-09-17T15:10:22.568Z,2.70
2022-09-17T15:12:51.577Z,2.60
2022-09-17T15:15:24.786Z,2.90
2022-09-17T15:17:54.527Z,2.70
2022-09-17T15:20:31.366Z,2.40
2022-09-17T15:23:25.511Z,2.30
2022-09-17T15:25:58.663Z,2.50
2022-09-17T15:28:36.683Z,2.30
2022-09-17T15:31:13.890Z,3.00
2022-09-17T15:33:42.912Z,2.60
2022-09-17T15:36:24.727Z,2.80
2022-09-17T15:38:53.958Z,3.20
2022-09-17T15:41:35.850Z,2.90
2022-09-17T15:44:31.495Z,3.00
2022-09-17T15:47:50.751Z,2.70
2022-09-17T15:50:35.547Z,3.00
2022-09-17T15:53:09.762Z,2.80
2022-09-17T15:56:13.434Z,2.60
2022-09-17T16:01:18.833Z,2.90
2022-09-17T16:04:29.153Z,3.50
2022-09-17T16:07:01.016Z,2.90
2022-09-17T16:10:01.134Z,3.40
2022-09-17T16:12:29.248Z,3.00
2022-09-17T16:15:03.228Z,3.00
2022-09-17T16:17:42.187Z,3.50
2022-09-17T16:20:23.638Z,3.70
2022-09-17T16:22:53.884Z,3.30
2022-09-17T16:25:28.262Z,3.60
2022-09-17T16:27:59.816Z,4.00
2022-09-17T16:30:28.212Z,4.00
2022-09-17T16:32:56.293Z,4.20
2022-09-17T16:35:26.391Z,3.60
2022-09-17T16:37:56.712Z,3.30
2022-09-17T16:40:28.330Z,2.70
2022-09-17T16:43:00.884Z,2.90
2022-09-17T16:45:31.239Z,3.60
2022-09-17T16:47:59.523Z,3.20
2022-09-17T16:50:28.489Z,3.40
2022-09-17T16:52:57.446Z,3.50
2022-09-17T16:55:26.905Z,3.90
2022-09-17T16:57:58.910Z,4.20
2022-09-17T17:00:27.259Z,3.90
2022-09-17T17:02:57.842Z,3.80
2022-09-17T17:05:27.721Z,3.50
2022-09-17T17:07:56.328Z,3.80
2022-09-17T17:10:26.612Z,3.70
2022-09-17T17:12:55.140Z,3.80
2022-09-17T17:15:24.242Z,4.10
2022-09-17T17:17:52.528Z,3.90
2022-09-17T17:20:20.662Z,4.70
2022-09-17T17:22:50.759Z,4.60
2022-09-17T17:25:18.908Z,5.40
2022-09-17T17:27:47.081Z,5.30
2022-09-17T17:30:17.498Z,4.80
2022-09-17T17:32:51.593Z,4.50
2022-09-17T17:37:48.687Z,6.30
2022-09-17T17:40:16.984Z,6.70
2022-09-17T17:42:47.537Z,6.90
2022-09-17T17:45:16.001Z,5.70
2022-09-17T17:47:44.154Z,5.40
2022-09-17T17:50:12.462Z,5.60
2022-09-17T17:52:43.500Z,4.00
2022-09-17T17:55:11.686Z,4.00
2022-09-17T17:57:40.549Z,3.60
2022-09-17T18:00:11.926Z,3.80
2022-09-17T18:02:41.100Z,4.00
2022-09-17T18:05:09.518Z,3.90
2022-09-17T18:07:37.610Z,3.50
2022-09-17T18:10:06.627Z,3.10
2022-09-17T18:12:36.723Z,3.60
2022-09-17T18:15:07.162Z,4.20
2022-09-17T18:17:36.424Z,3.60
2022-09-17T18:20:05.332Z,3.70
2022-09-17T18:22:33.421Z,3.50
2022-09-17T18:25:01.625Z,3.70
2022-09-17T18:27:29.768Z,3.80
2022-09-17T18:29:57.956Z,4.00
2022-09-17T18:32:26.076Z,4.30
2022-09-17T18:34:54.228Z,4.50
2022-09-17T18:37:22.313Z,4.10
2022-09-17T18:39:58.341Z,4.00
2022-09-17T18:42:27.219Z,3.50
2022-09-17T18:44:55.393Z,3.80
2022-09-17T18:47:23.557Z,3.50
2022-09-17T18:49:51.677Z,4.10
2022-09-17T18:52:19.982Z,3.30
2022-09-17T18:54:48.111Z,3.00
2022-09-17T18:57:16.346Z,2.90
2022-09-17T18:59:44.461Z,3.80
2022-09-17T19:02:13.337Z,4.10
2022-09-17T19:04:42.120Z,4.20
2022-09-17T19:07:10.262Z,4.20
2022-09-17T19:09:38.347Z,3.70
2022-09-17T19:12:06.646Z,3.80
2022-09-17T19:14:34.738Z,4.00
2022-09-17T19:17:02.877Z,3.40
2022-09-17T19:19:31.004Z,4.00
2022-09-17T19:21:59.086Z,4.10
2022-09-17T19:24:27.198Z,3.90
2022-09-17T19:26:55.325Z,4.40
2022-09-17T19:29:23.433Z,4.00
2022-09-17T19:31:51.526Z,4.10
2022-09-17T19:34:19.623Z,3.90
2022-09-17T19:36:47.712Z,3.60
2022-09-17T19:39:17.655Z,4.30
2022-09-17T19:41:45.785Z,5.00
2022-09-17T19:44:13.868Z,8.20
2022-09-17T19:46:42.278Z,10.00
2022-09-17T19:49:10.886Z,7.60
2022-09-17T19:51:39.004Z,58.10
2022-09-17T19:54:08.155Z,179.40
2022-09-17T19:56:36.341Z,116.70
2022-09-17T19:59:04.695Z,132.60
2022-09-17T20:01:34.896Z,67.20
2022-09-17T20:04:04.237Z,39.30
2022-09-17T20:06:35.979Z,20.80
2022-09-17T20:09:05.315Z,23.90
2022-09-17T20:11:33.480Z,24.30
2022-09-17T20:14:06.681Z,13.90
2022-09-17T20:16:40.273Z,7.10
2022-09-17T20:19:08.731Z,4.70
2022-09-17T20:21:36.867Z,4.40
2022-09-17T20:24:06.692Z,4.10
2022-09-17T20:26:35.404Z,4.30
2022-09-17T20:29:04.817Z,3.50
2022-09-17T20:31:33.420Z,4.90
2022-09-17T20:34:02.942Z,11.40
2022-09-17T20:36:33.942Z,10.60
2022-09-17T20:39:17.910Z,6.20
2022-09-17T20:41:46.401Z,3.90
2022-09-17T20:44:14.593Z,4.90
2022-09-17T20:46:42.794Z,4.20
2022-09-17T20:49:10.958Z,3.50
2022-09-17T20:51:39.038Z,3.70
2022-09-17T20:54:08.827Z,3.20
2022-09-17T20:56:36.972Z,3.30
2022-09-17T20:59:20.995Z,3.50
2022-09-17T21:01:50.268Z,4.40
2022-09-17T21:04:21.016Z,4.70
2022-09-17T21:06:53.133Z,4.60
2022-09-17T21:09:21.282Z,5.70
2022-09-17T21:11:49.688Z,4.90
2022-09-17T21:14:18.562Z,5.50
2022-09-17T21:16:46.889Z,4.20
2022-09-17T21:19:16.623Z,3.70
2022-09-17T21:21:45.892Z,4.70
2022-09-17T21:24:14.039Z,6.10
2022-09-17T21:26:42.625Z,4.80
2022-09-17T21:29:10.774Z,4.60
2022-09-17T21:31:39.820Z,5.00
2022-09-17T21:34:11.939Z,5.40
2022-09-17T21:36:44.459Z,5.40
2022-09-17T21:39:17.876Z,4.50
2022-09-17T21:41:48.175Z,3.80
2022-09-17T21:44:17.062Z,4.30
2022-09-17T21:46:45.234Z,4.50
2022-09-17T21:49:13.768Z,5.80
2022-09-17T21:51:43.022Z,4.70
2022-09-17T21:54:15.888Z,4.70
2022-09-17T21:56:46.058Z,3.90
2022-09-17T21:59:17.054Z,4.20
2022-09-17T22:01:49.560Z,3.10
2022-09-17T22:04:21.013Z,3.70
2022-09-17T22:06:50.321Z,4.00
2022-09-17T22:09:25.179Z,3.00
2022-09-17T22:11:53.738Z,3.50
2022-09-17T22:14:24.787Z,3.10
2022-09-17T22:16:56.936Z,2.80
2022-09-17T22:19:26.030Z,3.90
2022-09-17T22:21:55.933Z,3.30
2022-09-17T22:24:25.354Z,3.10
2022-09-17T22:26:57.890Z,2.80
2022-09-17T22:29:30.268Z,3.50
2022-09-17T22:31:58.738Z,2.50
2022-09-17T22:34:27.030Z,2.90
2022-09-17T22:36:55.261Z,2.30
2022-09-17T22:39:23.422Z,2.90
2022-09-17T22:41:51.524Z,2.60
2022-09-17T22:44:20.545Z,3.10
2022-09-17T22:46:51.728Z,3.10
2022-09-17T22:49:20.313Z,2.80
2022-09-17T22:51:48.809Z,3.00
2022-09-17T22:54:19.084Z,3.00
2022-09-17T22:56:48.385Z,3.20
2022-09-17T22:59:18.219Z,3.10
2022-09-17T23:01:47.254Z,3.30
2022-09-17T23:04:15.503Z,3.30
2022-09-17T23:06:43.628Z,2.90
2022-09-17T23:09:14.166Z,3.00
2022-09-17T23:11:42.809Z,3.10
2022-09-17T23:14:13.613Z,3.10
2022-09-17T23:16:47.559Z,3.20
2022-09-17T23:19:18.901Z,3.00
2022-09-17T23:21:47.172Z,3.10
2022-09-17T23:24:21.603Z,2.70
2022-09-17T23:26:50.400Z,2.40
2022-09-17T23:29:19.747Z,2.40
2022-09-17T23:31:47.916Z,2.70
2022-09-17T23:34:16.090Z,2.10
2022-09-17T23:36:44.872Z,1.40
2022-09-17T23:39:13.342Z,1.40
2022-09-17T23:41:44.822Z,1.10
2022-09-17T23:44:15.802Z,1.10
2022-09-17T23:46:46.474Z,1.10
2022-09-17T23:49:15.837Z,0.80
2022-09-17T23:51:44.871Z,1.10
2022-09-17T23:54:13.030Z,1.10
2022-09-17T23:56:41.159Z,1.10
2022-09-17T23:59:10.932Z,1.10
